^^
Datos históricos de la estación: Murcia-Puente Tocinos
 
Diario Informe para Noviembre 15, 2018 Unidades:  Métrico    Inglés   Ambas
Diario Semanal Mensual Anual Configurable
  Actual: Máximo: Mínimo: Media:
Temperatura: 20.2 °C 20.2 °C 14.1 °C 16.6 °C
Punto de rocio: 14.1 °C 15.5 °C 12.9 °C 14.3 °C
Humedad: 68% 96% 67% 87%
Velocidad viento: 3.9km/h 23.7km/h 0km/h 6.4km/h
Racha viento: 7.4km/h 40.7km/h - -
VientoNW - - South
Presión: 1014.4 hPa 1016.1 hPa 1014.1 hPa -
Precipitación: 26.67 mm      
Historical Graphs
 
 
Tabla de datos para Noviembre 15, 2018
Hora Temperatura Punto de rocio Presión Viento Velocidad viento Racha viento Humedad Intensidad lluvia(por hora) Nubes
00:00 17.3 °C 14.2 °C 1016.1 hPa WNW 3.2 km/h 5.8 km/h 82% 0 mm CLR
00:05 17.3 °C 14 °C 1016.1 hPa WNW 3.2 km/h 3.7 km/h 81% 0 mm CLR
00:10 17.3 °C 14 °C 1016.1 hPa NNW 3.9 km/h 5.6 km/h 81% 0 mm CLR
00:15 17.3 °C 14 °C 1016.1 hPa NE 3.9 km/h 7.4 km/h 81% 0 mm CLR
00:20 17.3 °C 14 °C 1016.1 hPa NE 3.9 km/h 9.3 km/h 81% 0 mm CLR
00:25 17.2 °C 13.9 °C 1016.1 hPa NE 3.9 km/h 9.3 km/h 81% 0 mm CLR
00:30 17.2 °C 13.9 °C 1016.1 hPa NNE 6.4 km/h 11.9 km/h 81% 0 mm CLR
00:35 17.2 °C 13.9 °C 1015.8 hPa ENE 6.4 km/h 9.3 km/h 81% 0 mm CLR
00:40 17.2 °C 13.9 °C 1015.8 hPa East 5.8 km/h 5.6 km/h 81% 0 mm CLR
00:45 17.2 °C 13.9 °C 1015.8 hPa East 5.8 km/h 3.9 km/h 81% 0 mm CLR
00:50 17.2 °C 13.9 °C 1015.8 hPa East 2.9 km/h 5.6 km/h 81% 0 mm CLR
00:55 17.1 °C 13.8 °C 1015.8 hPa NW 2.9 km/h   81% 0 mm CLR
01:00 17.1 °C 14 °C 1015.8 hPa WNW 2.3 km/h 7.4 km/h 82% 0 mm CLR
01:05 16.9 °C 13.8 °C 1015.5 hPa NW 2.3 km/h 7.4 km/h 82% 0 mm CLR
01:10 16.9 °C 13.8 °C 1015.5 hPa NW 3.9 km/h 7.4 km/h 82% 0 mm CLR
01:15 16.9 °C 13.8 °C 1015.5 hPa NW 3.9 km/h   82% 0 mm FEW
01:20 16.9 °C 13.8 °C 1015.5 hPa WNW 2.3 km/h 7.4 km/h 82% 0 mm FEW
01:25 16.9 °C 13.8 °C 1015.5 hPa WNW 2.3 km/h 5.6 km/h 82% 0 mm FEW
01:30 16.9 °C 14 °C 1015.5 hPa WSW 2.3 km/h   83% 0 mm FEW
01:35 16.9 °C 13.8 °C 1015.5 hPa WSW 2.3 km/h   82% 0 mm FEW
01:40 16.9 °C 14 °C 1015.5 hPa Calm   11.1 km/h 83% 0 mm FEW
01:45 16.9 °C 14 °C 1015.5 hPa Calm   14.8 km/h 83% 0 mm FEW
01:50 16.9 °C 14 °C 1015.1 hPa ENE 6.4 km/h 18.3 km/h 83% 0 mm FEW
01:55 17 °C 14.1 °C 1015.1 hPa NE 6.4 km/h 18.5 km/h 83% 0 mm FEW
02:00 17 °C 14.1 °C 1015.1 hPa NE 11.3 km/h 16.1 km/h 83% 0 mm FEW
02:05 17 °C 14.4 °C 1015.5 hPa ESE 11.1 km/h 14.8 km/h 85% 0.51 mm RA
02:10 17 °C 14.7 °C 1015.5 hPa NNE 8.4 km/h 7.4 km/h 86% 3.56 mm RA
02:15 16.7 °C 14.7 °C 1015.5 hPa NE 8.4 km/h 22.2 km/h 88% 3.81 mm RA
02:20 16.6 °C 14.8 °C 1014.4 hPa NE 10 km/h 24.1 km/h 89% 4.06 mm RA
02:25 16.6 °C 14.9 °C 1014.4 hPa NE 10 km/h 20.4 km/h 90% 4.32 mm RA
02:30 16.6 °C 14.8 °C 1014.4 hPa NNE 14.8 km/h 20.4 km/h 89% 4.32 mm RA
02:35 16.7 °C 14.9 °C 1014.4 hPa NE 14.8 km/h 16.7 km/h 89% 4.32 mm BKN
02:40 16.6 °C 14.8 °C 1014.4 hPa NNE 10.3 km/h 14.8 km/h 89% 4.32 mm BKN
02:45 16.6 °C 14.8 °C 1014.4 hPa NNE 10.3 km/h 14.8 km/h 89% 4.32 mm BKN
02:50 16.5 °C 14.7 °C 1014.4 hPa NNE 8.7 km/h 9.3 km/h 89% 4.32 mm -RA
02:55 16.4 °C 14.8 °C 1014.4 hPa NNE 8.7 km/h 9.5 km/h 90% 4.32 mm BKN
03:00 16.4 °C 14.8 °C 1014.4 hPa NNE 8 km/h 14.5 km/h 90% 0 mm BKN
03:05 16.4 °C 14.8 °C 1014.1 hPa NNE 6.4 km/h 16.7 km/h 90% 3.81 mm BKN
03:10 16.4 °C 14.8 °C 1014.1 hPa NE 10.3 km/h 14.8 km/h 90% 0.76 mm BKN
03:15 16.4 °C 14.9 °C 1014.1 hPa ENE 10.3 km/h 14.8 km/h 91% 0.51 mm BKN
03:20 16.5 °C 15 °C 1014.1 hPa NNE 10.3 km/h 18.5 km/h 91% 0.25 mm BKN
03:25 16.6 °C 14.9 °C 1014.1 hPa NE 10.3 km/h 24.1 km/h 90% 0 mm BKN
03:30 16.6 °C 14.9 °C 1014.1 hPa NE 14 km/h 20.4 km/h 90% 0.25 mm RA
03:35 16.7 °C 15.1 °C 1014.1 hPa NNE 14 km/h 22.2 km/h 90% 0.25 mm RA
03:40 16.8 °C 15.2 °C 1014.1 hPa NE 15.6 km/h 24.1 km/h 90% 0.25 mm BKN
03:45 16.8 °C 15.2 °C 1014.1 hPa ENE 15.6 km/h 14.8 km/h 90% 0.25 mm BKN
03:50 16.8 °C 15.2 °C 1014.1 hPa East 11.9 km/h 9.3 km/h 90% 0.25 mm SCT
03:55 16.8 °C 15.3 °C 1014.1 hPa ENE 11.9 km/h 13 km/h 91% 0.25 mm BKN
04:00 16.7 °C 15.2 °C 1014.1 hPa ENE 8 km/h 14.5 km/h 91% 0 mm BKN
04:05 16.7 °C 15.2 °C 1014.1 hPa NE 6.4 km/h 14.8 km/h 91% 0.25 mm BKN
04:10 16.8 °C 15.3 °C 1014.1 hPa NE 10 km/h 20.4 km/h 91% 0.76 mm RA
04:15 16.8 °C 15.3 °C 1014.1 hPa ENE 10 km/h 14 km/h 91% 0.76 mm RA
04:20 16.8 °C 15.5 °C 1014.1 hPa North 8.7 km/h 14.8 km/h 92% 1.27 mm RA
04:25 16.7 °C 15.4 °C 1014.1 hPa NE 8.7 km/h 16.7 km/h 92% 1.52 mm RA
04:30 16.7 °C 15.4 °C 1014.1 hPa NNE 8.7 km/h 18.5 km/h 92% 1.78 mm RA
04:35 16.7 °C 15.4 °C 1014.1 hPa NE 8.7 km/h 13 km/h 92% 1.52 mm RA
04:40 16.7 °C 15.4 °C 1014.1 hPa NE 9.5 km/h 9.5 km/h 92% 2.03 mm RA
04:45 16.7 °C 15.4 °C 1014.1 hPa NE 9.5 km/h 7.4 km/h 92% 2.54 mm RA
04:50 16.7 °C 15.4 °C 1014.1 hPa NW 6.4 km/h 11.9 km/h 92% 3.05 mm RA
04:55 16.6 °C 15.3 °C 1014.1 hPa NW 6.4 km/h 14.8 km/h 92% 3.3 mm RA
05:00 16.6 °C 15.4 °C 1014.1 hPa NW 9.7 km/h 20.9 km/h 93% 0.25 mm RA
05:05 15.6 °C 13.8 °C 1014.1 hPa East 8.7 km/h 27.8 km/h 89% 7.11 mm RA
05:10 15 °C 13.6 °C 1014.1 hPa ESE 14.8 km/h 40.7 km/h 91% 8.13 mm RA
05:15 15.1 °C 13.1 °C 1014.1 hPa ESE 14.8 km/h 33.3 km/h 88% 8.89 mm RA
05:20 14.9 °C 12.9 °C 1014.4 hPa East 23.7 km/h 22.5 km/h 88% 9.14 mm RA
05:25 14.7 °C 12.9 °C 1014.4 hPa East 23.7 km/h 27.8 km/h 89% 9.4 mm RA
05:30 14.6 °C 13.2 °C 1014.4 hPa ESE 16.4 km/h 21.7 km/h 91% 10.41 mm RA
05:35 14.6 °C 13.2 °C 1014.8 hPa East 16.4 km/h 20.4 km/h 91% 12.19 mm RA
05:40 14.6 °C 13.3 °C 1014.8 hPa East 14 km/h 7.4 km/h 92% 13.21 mm RA
05:45 14.5 °C 13.2 °C 1014.8 hPa East 14 km/h 6.9 km/h 92% 13.21 mm RA
05:50 14.5 °C 13.2 °C 1014.4 hPa NNW 3.9 km/h 7.4 km/h 92% 12.95 mm RA
05:55 14.4 °C 13.3 °C 1014.4 hPa NNW 3.9 km/h 7.4 km/h 93% 13.21 mm RA
06:00 14.4 °C 13.3 °C 1014.4 hPa NNW 3.2 km/h 8 km/h 93% 0 mm RA
06:05 14.4 °C 13.3 °C 1014.4 hPa NNE 4.7 km/h 9.3 km/h 93% 9.14 mm SCT
06:10 14.3 °C 13.2 °C 1014.4 hPa NNE 4.7 km/h 16.1 km/h 93% 7.87 mm RA
06:15 14.1 °C 13 °C 1014.4 hPa NNE 4.7 km/h 14.8 km/h 93% 7.11 mm RA
06:20 14.1 °C 13.2 °C 1014.4 hPa NNE 10 km/h 13 km/h 94% 6.35 mm FEW
06:25 14.1 °C 13.2 °C 1014.4 hPa NNE 10 km/h 13 km/h 94% 5.84 mm BKN
06:30 14.1 °C 13.2 °C 1014.4 hPa NNE 8.7 km/h 14.8 km/h 94% 4.57 mm FEW
06:35 14.1 °C 13.2 °C 1014.4 hPa ENE 8.7 km/h 11.9 km/h 94% 2.79 mm BKN
06:40 14.1 °C 13.2 °C 1014.4 hPa NE 8.7 km/h 12.2 km/h 94% 1.27 mm BKN
06:45 14.1 °C 13.3 °C 1014.4 hPa NE 8.7 km/h 11.1 km/h 95% 0.76 mm BKN
06:50 14.1 °C 13.3 °C 1015.1 hPa North 6.9 km/h 14.8 km/h 95% 1.02 mm RA
06:55 14.1 °C 13.3 °C 1015.1 hPa NE 6.9 km/h 14.8 km/h 95% 0.76 mm RA
07:00 14.2 °C 13.4 °C 1015.1 hPa NE 9.7 km/h 14.5 km/h 95% 0 mm BKN
07:05 14.2 °C 13.4 °C 1014.8 hPa NNE 8.7 km/h 11.1 km/h 95% 0.76 mm BKN
07:10 14.2 °C 13.4 °C 1014.8 hPa NNE 8.4 km/h 7.4 km/h 95% 0.51 mm BKN
07:15 14.2 °C 13.4 °C 1014.8 hPa NNE 8.4 km/h 3.7 km/h 95% 0.76 mm RA
07:20 14.3 °C 13.7 °C 1014.4 hPa NNE 2.9 km/h 3.9 km/h 96% 0.76 mm RA
07:25 14.3 °C 13.7 °C 1014.4 hPa NW 2.9 km/h 7.4 km/h 96% 0.76 mm BKN
07:30 14.3 °C 13.7 °C 1014.4 hPa NW 3.9 km/h 10 km/h 96% 0.76 mm BKN
07:35 14.3 °C 13.7 °C 1014.8 hPa WNW 3.9 km/h 7.4 km/h 96% 1.02 mm RA
07:40 14.3 °C 13.7 °C 1014.8 hPa WSW 5.8 km/h 9.3 km/h 96% 1.27 mm RA
07:45 14.3 °C 13.7 °C 1014.8 hPa West 5.8 km/h 7.4 km/h 96% 1.27 mm RA
07:50 14.3 °C 13.7 °C 1015.1 hPa West 4.7 km/h 3.7 km/h 96% 0.76 mm BKN
07:55 14.3 °C 13.7 °C 1015.1 hPa West 4.7 km/h 3.7 km/h 96% 1.02 mm RA
08:00 14.4 °C 13.8 °C 1015.1 hPa West 3.2 km/h 8 km/h 96% 0 mm RA
08:05 14.4 °C 13.8 °C 1015.1 hPa South 2.9 km/h 7.4 km/h 96% 1.02 mm BKN
08:10 14.5 °C 13.9 °C 1015.1 hPa South 4.7 km/h 9.3 km/h 96% 1.02 mm BKN
08:15 14.6 °C 13.9 °C 1015.1 hPa SSE 4.7 km/h 9.5 km/h 96% 0.76 mm BKN
08:20 14.6 °C 13.9 °C 1015.1 hPa SSE 6.4 km/h 11.1 km/h 96% 0.76 mm BKN
08:25 14.6 °C 13.9 °C 1015.1 hPa South 6.4 km/h 9.3 km/h 96% 0.76 mm BKN
08:30 14.5 °C 13.9 °C 1015.1 hPa South 7.6 km/h 9.3 km/h 96% 0.76 mm BKN
08:35 14.6 °C 13.9 °C 1014.8 hPa SSW 7.6 km/h 7.4 km/h 96% 0.51 mm BKN
08:40 14.6 °C 13.9 °C 1014.8 hPa South 5.8 km/h 9.3 km/h 96% 0.25 mm BKN
08:45 14.6 °C 13.9 °C 1014.8 hPa South 5.8 km/h 9.3 km/h 96% 0.25 mm BKN
08:50 14.6 °C 13.9 °C 1015.1 hPa South 6.9 km/h 9.3 km/h 96% 0.25 mm BKN
08:55 14.6 °C 13.9 °C 1015.1 hPa SSW 6.9 km/h 10.3 km/h 96% 0 mm BKN
08:59 14.6 °C 13.9 °C 1015.1 hPa SSW 6.9 km/h 14.8 km/h 96% 0 mm BKN
09:05 14.6 °C 13.9 °C 1015.1 hPa WSW 6.9 km/h 7.4 km/h 96% 0 mm BKN
09:10 14.7 °C 14.1 °C 1015.1 hPa South 7.6 km/h 7.4 km/h 96% 0 mm BKN
09:15 14.7 °C 14.1 °C 1015.1 hPa SSW 7.6 km/h 7.4 km/h 96% 0 mm OVC
09:20 14.8 °C 14.2 °C 1015.5 hPa SSW 5 km/h 9.3 km/h 96% 0 mm BKN
09:25 14.8 °C 14.2 °C 1015.5 hPa SSW 5 km/h 9.3 km/h 96% 0 mm OVC
09:30 14.8 °C 14.2 °C 1015.5 hPa SSW 6.4 km/h 7.6 km/h 96% 0 mm OVC
09:35 14.7 °C 14.1 °C 1015.8 hPa SSW 6.4 km/h 5.6 km/h 96% 0 mm OVC
09:40 14.7 °C 14.1 °C 1015.8 hPa SSW 4.7 km/h 7.4 km/h 96% 0 mm OVC
09:45 14.8 °C 14.2 °C 1015.8 hPa SSW 4.7 km/h 5.6 km/h 96% 0 mm OVC
09:50 14.8 °C 14.2 °C 1015.8 hPa SSW 4.7 km/h 3.9 km/h 96% 0 mm OVC
09:55 14.9 °C 14.3 °C 1015.8 hPa SSW 4.7 km/h 7.4 km/h 96% 0 mm OVC
10:00 14.9 °C 14.1 °C 1015.8 hPa South 3.2 km/h 9.3 km/h 95% 0 mm OVC
10:05 15 °C 14.4 °C 1015.8 hPa South 3.2 km/h 7.4 km/h 96% 0 mm OVC
10:10 15.2 °C 14.6 °C 1015.8 hPa WSW 5.8 km/h 7.4 km/h 96% 0 mm OVC
10:15 15.2 °C 14.4 °C 1015.8 hPa WSW 5.8 km/h 5.6 km/h 95% 0 mm BKN
10:20 15.3 °C 14.5 °C 1015.8 hPa WSW 3.9 km/h 7.4 km/h 95% 0 mm BKN
10:25 15.3 °C 14.5 °C 1015.8 hPa SW 3.9 km/h 9.3 km/h 95% 0 mm BKN
10:30 15.4 °C 14.6 °C 1015.8 hPa SSW 5.8 km/h 7.6 km/h 95% 0 mm BKN
10:35 15.5 °C 14.7 °C 1015.8 hPa SW 5.8 km/h 7.4 km/h 95% 0 mm BKN
10:40 15.6 °C 14.8 °C 1015.8 hPa SSW 5 km/h 5.6 km/h 95% 0 mm BKN
10:45 15.6 °C 14.6 °C 1015.8 hPa WSW 5 km/h 9.3 km/h 94% 0 mm BKN
10:50 15.6 °C 14.6 °C 1015.8 hPa West 3.9 km/h 7.4 km/h 94% 0 mm BKN
10:55 15.7 °C 14.7 °C 1015.8 hPa West 3.9 km/h 7.4 km/h 94% 0 mm BKN
11:00 15.7 °C 14.6 °C 1015.8 hPa West 4.8 km/h 8 km/h 93% 0 mm BKN
11:05 15.8 °C 14.7 °C 1016.1 hPa West 5 km/h 5.8 km/h 93% 0 mm BKN
11:10 15.9 °C 14.8 °C 1016.1 hPa SW 3.9 km/h 9.3 km/h 93% 0 mm BKN
11:15 16.3 °C 15 °C 1016.1 hPa SSW 3.9 km/h 11.1 km/h 92% 0 mm SCT
11:20 16.4 °C 14.9 °C 1015.8 hPa South 7.6 km/h 13 km/h 91% 0 mm SCT
11:25 16.5 °C 15 °C 1015.8 hPa SW 7.6 km/h 11.1 km/h 91% 0 mm SCT
11:30 16.6 °C 14.9 °C 1015.8 hPa South 9.5 km/h 11.1 km/h 90% 0 mm SCT
11:35 16.6 °C 14.8 °C 1015.8 hPa WSW 9.5 km/h 9.5 km/h 89% 0 mm SCT
11:40 16.7 °C 14.9 °C 1015.8 hPa WSW 6.9 km/h 7.4 km/h 89% 0 mm SCT
11:45 16.8 °C 15 °C 1015.8 hPa SSW 6.9 km/h 7.4 km/h 89% 0 mm SCT
11:50 16.8 °C 14.6 °C 1015.8 hPa SW 4.7 km/h 9.3 km/h 87% 0 mm SCT
11:55 16.8 °C 14.6 °C 1015.8 hPa SW 4.7 km/h 7.4 km/h 87% 0 mm SCT
12:00 16.9 °C 14.7 °C 1015.8 hPa SW 4.8 km/h 8 km/h 87% 0 mm SCT
12:05 17.1 °C 14.7 °C 1015.8 hPa West 5 km/h 7.4 km/h 86% 0 mm SCT
12:10 17.3 °C 14.6 °C 1015.8 hPa West 3.9 km/h 7.4 km/h 84% 0 mm SCT
12:15 17.5 °C 14.8 °C 1015.8 hPa NW 3.9 km/h 7.4 km/h 84% 0 mm BKN
12:20 17.7 °C 14.8 °C 1015.5 hPa WNW 4.7 km/h 5.6 km/h 83% 0 mm BKN
12:25 17.8 °C 14.7 °C 1015.5 hPa West 4.7 km/h 9.3 km/h 82% 0 mm BKN
12:30 17.8 °C 14.5 °C 1015.5 hPa West 3.9 km/h 9.3 km/h 81% 0 mm BKN
12:35 17.9 °C 14.6 °C 1015.1 hPa WNW 3.9 km/h 13 km/h 81% 0 mm BKN
12:40 17.8 °C 14.3 °C 1015.1 hPa WSW 5.8 km/h 9.3 km/h 80% 0 mm BKN
12:45 17.9 °C 14.6 °C 1015.1 hPa WSW 5.8 km/h 8.4 km/h 81% 0 mm BKN
12:49 18 °C 14.5 °C 1015.1 hPa WSW 5.8 km/h 3.7 km/h 80% 0 mm BKN
12:54 18 °C 14.3 °C 1015.1 hPa West 5.8 km/h 3.7 km/h 79% 0 mm BKN
12:59 18.1 °C 14.4 °C 1015.1 hPa West 2.9 km/h 5.8 km/h 79% 0 mm BKN
13:04 18.2 °C 14.3 °C 1015.1 hPa West 2.9 km/h 7.4 km/h 78% 0 mm BKN
13:09 18.2 °C 14.3 °C 1015.1 hPa West 3.2 km/h 5.6 km/h 78% 0 mm BKN
13:14 18.4 °C 14.5 °C 1015.1 hPa SW 3.2 km/h 7.4 km/h 78% 0 mm BKN
13:19 18.6 °C 14.5 °C 1014.8 hPa SSW 3.2 km/h 9.3 km/h 77% 0 mm SCT
13:24 18.5 °C 14.4 °C 1014.8 hPa South 3.2 km/h 7.4 km/h 77% 0 mm SCT
13:29 18.6 °C 14.5 °C 1014.8 hPa SE 5.8 km/h 9.3 km/h 77% 0 mm SCT
13:34 18.7 °C 14.4 °C 1014.8 hPa SE 5.8 km/h 7.4 km/h 76% 0 mm SCT
13:39 18.8 °C 14.5 °C 1014.8 hPa SE 5.8 km/h 7.4 km/h 76% 0 mm SCT
13:44 18.9 °C 14.6 °C 1014.8 hPa East 5.8 km/h 9.3 km/h 76% 0 mm SCT
13:49 19.1 °C 14.8 °C 1014.8 hPa South 4.7 km/h 7.4 km/h 76% 0 mm SCT
13:54 19.2 °C 14.4 °C 1014.8 hPa WNW 4.7 km/h 7.4 km/h 74% 0 mm SCT
13:59 19.2 °C 14.4 °C 1014.8 hPa WNW 3.9 km/h 7.4 km/h 74% 0 mm SCT
14:04 19.3 °C 14.6 °C 1014.8 hPa WNW 3.9 km/h 7.4 km/h 74% 0 mm SCT
14:09 19.2 °C 14.4 °C 1014.8 hPa WNW 4.7 km/h 7.4 km/h 74% 0 mm SCT
14:14 19.3 °C 14.6 °C 1014.8 hPa NNW 4.7 km/h 7.4 km/h 74% 0 mm SCT
14:19 19.3 °C 14.6 °C 1014.8 hPa NW 5 km/h 3.9 km/h 74% 0 mm BKN
14:24 19.4 °C 14.4 °C 1014.8 hPa NW 5 km/h 5.6 km/h 73% 0 mm BKN
14:29 19.5 °C 14.3 °C 1014.8 hPa NNW 2.9 km/h 7.4 km/h 72% 0 mm BKN
14:34 19.6 °C 14 °C 1014.4 hPa NE 2.9 km/h 13 km/h 70% 0 mm BKN
14:39 19.3 °C 13.9 °C 1014.4 hPa ENE 5 km/h 9.3 km/h 71% 0 mm BKN
14:44 19.2 °C 14.2 °C 1014.4 hPa NE 5 km/h 9.3 km/h 73% 0 mm BKN
14:49 19.2 °C 14.4 °C 1014.4 hPa North 6.9 km/h 7.4 km/h 74% 4.06 mm RA
14:54 19.1 °C 14.2 °C 1014.4 hPa North 6.9 km/h 7.4 km/h 73% 4.06 mm RA
14:59 19.2 °C 14.4 °C 1014.4 hPa WNW 3.9 km/h 5.6 km/h 74% 4.06 mm BKN
15:04 19.3 °C 14.3 °C 1014.4 hPa WNW 3.9 km/h 7.6 km/h 73% 4.06 mm BKN
15:09 19.3 °C 14.1 °C 1014.4 hPa West 3.2 km/h 7.4 km/h 72% 4.06 mm BKN
15:14 19.6 °C 14.6 °C 1014.4 hPa West 3.2 km/h 3.2 km/h 73% 4.06 mm BKN
15:19 19.8 °C 14.4 °C 1014.4 hPa WNW 2.9 km/h 9.3 km/h 71% 4.06 mm BKN
15:24 19.8 °C 14.4 °C 1014.4 hPa NW 2.9 km/h 3.7 km/h 71% 4.06 mm BKN
15:29 19.9 °C 14.5 °C 1014.4 hPa NNE 3.9 km/h 2.3 km/h 71% 4.06 mm BKN
15:34 19.9 °C 14.1 °C 1014.4 hPa NNE 3.9 km/h 11.1 km/h 69% 4.06 mm BKN
15:39 19.9 °C 13.8 °C 1014.4 hPa NE 3.9 km/h 9.3 km/h 68% 4.06 mm BKN
15:44 19.9 °C 14.1 °C 1014.4 hPa NE 3.9 km/h 5.8 km/h 69% 4.06 mm BKN
15:49 20.1 °C 14 °C 1014.4 hPa NE 4.7 km/h 7.4 km/h 68% 0 mm BKN
15:54 20.2 °C 13.9 °C 1014.4 hPa NE 4.7 km/h 5.6 km/h 67% 0 mm BKN
15:59 20.2 °C 13.9 °C 1014.4 hPa WNW 3.2 km/h 4.7 km/h 67% 0 mm BKN
16:04 20.2 °C 13.9 °C 1014.4 hPa WNW 3.2 km/h 7.4 km/h 67% 0 mm BKN
16:09 20.2 °C 14.1 °C 1014.4 hPa NW 3.9 km/h 7.4 km/h 68% 0 mm BKN
Murcia-Puente Tocinos, España
Compliments of Weather Underground - 2.25 mb

La estación de MeteoMurcia.com, publica sus datos en los siguientes proyectos:

Meteoclimatic www.awekas.at

W3Counter
Web Analytics